Flugplatz Reinsdorf

Für EDOD sind keine METAR/TAF Berichte vorhanden.
Es werden die Flugwettermeldungen vom Flugplatz Holzdorf Airport in 14 km Entfernung angezeigt.

Bericht für ETSH

vom 20.10. um 04:20 UTC

Wind 3 kt aus 160°

Sichtweite 10 km oder mehr

aufgebrochene Bewölkung in 24000 ft

Temperatur 10.0°C

Taupunkt 9.0°C

Luftfeuchtigkeit 93%

Luftdruck 1012 hPa

ETSH 200420Z 16003KT 9999 BKN240 10/09 Q1012 BLU+BLU+

Prognose für ETSH

vom 20.10. um 04:23 UTC

Zwischen 05:00 UTC und 10:00 UTC

Wind 8 kt aus 200°

Sichtweite 10 km oder mehr

keine signifikanten Wettererscheinungen

gering bewölkt in 10000 ft

aufgebrochene Bewölkung in 24000 ft


Zwischen 10:00 und 12:00 UTC übergehend zu

Wind 13 kt aus 220°

Sichtweite 10 km oder mehr

keine signifikanten Wettererscheinungen

aufgelockert bewölkt in 6000 ft

aufgebrochene Bewölkung in 9000 ft

TAF ETSH 200423Z 2005/2014 20008KT 9999 NSW FEW100 BKN240 BECMG 2010/2012 22013KT 9999 NSW SCT060 BKN090
Impressum